Carveacre (1166, 625) Station Data

Red Flag Warning: No
Fire Weather Zone: 251
SDGE Region: Eastern
Lat/Lon: 32.784/-116.723

Observations

Time Wind Speed/Gust Temp(F) RH Fuel Moist Fuel Temp(F) Dewpt(F) Tmax(F) Tmin(F) Accum Precip 10-min Precip SL Press(mb)
4/26 2:40am 94 2 G 5 52° 71% - - 43° 54.5° 51.1° - - -
4/26 2:30am 117 0 G 1 52° 70% - - 43° 54.5° 51.1° - - -
4/26 2:20am 117 1 G 3 52° 69% - - 43° 54.5° 51.1° - - -
4/26 2:10am 109 3 G 5 52° 70% - - 43° 54.5° 51.1° - - -
4/26 2:00am 91 1 G 3 52° 71% - - 43° 54.5° 51.1° - - -
4/26 1:50am 32 2 G 5 53° 71% - - 44° 54.5° 51.1° - - -
4/26 1:40am 85 1 G 3 52° 72% - - 44° 54.5° 51.1° - - -
4/26 1:30am 139 3 G 5 52° 73% - - 44° 54.5° 51.1° - - -
4/26 1:20am 136 3 G 6 52° 71% - - 43° 54.5° 51.1° - - -
4/26 1:10am 89 3 G 6 54° 70% - - 44° 54.5° 51.3° - - -
4/26 1:00am 89 2 G 4 52° 74% - - 44° 54.5° 51.3° - - -
4/26 12:50am 86 3 G 6 53° 71% - - 44° 54.5° 51.4° - - -
4/26 12:40am 103 2 G 3 52° 74% - - 44° 53.7° 52° - - -
4/26 12:30am 198 1 G 3 52° 73% - - 44° 53.7° 52° - - -
4/26 12:20am 129 2 G 4 53° 72% - - 44° 53.7° 52.6° - - -
4/26 12:10am 121 3 G 5 53° 72% - - 44° 53.7° 52.6° - - -
4/26 12:00am 101 3 G 6 53° 72% - - 45° 64.6° 50.5° - - -
4/25 11:50pm 121 4 G 7 52° 73% - - 44° 64.6° 50.5° - - -
4/25 11:40pm 102 4 G 6 52° 71% - - 43° 64.6° 50.5° - - -
4/25 11:30pm 116 5 G 7 53° 70% - - 44° 64.6° 50.5° - - -
4/25 11:20pm 117 5 G 8 53° 70% - - 43° 64.6° 50.5° - - -
4/25 11:10pm 121 6 G 8 53° 69% - - 43° 64.6° 50.5° - - -
4/25 11:00pm 122 6 G 8 53° 69% - - 43° 64.6° 50.5° - - -
4/25 10:50pm 126 5 G 7 52° 69% - - 43° 64.6° 50.5° - - -
4/25 10:40pm 120 4 G 6 51° 72% - - 43° 64.6° 50.5° - - -
4/25 10:30pm 113 3 G 6 53° 68% - - 42° 64.6° 50.8° - - -
4/25 10:20pm 115 3 G 4 54° 67% - - 43° 64.6° 51.6° - - -
4/25 10:10pm 119 3 G 5 53° 67% - - 43° 64.6° 51.6° - - -
4/25 10:00pm 123 3 G 4 54° 66% - - 43° 64.6° 51.6° - - -
4/25 9:50pm 119 2 G 4 54° 67% - - 43° 64.6° 51.6° - - -
4/25 9:40pm 125 3 G 3 54° 67% - - 43° 64.6° 51.6° - - -
4/25 9:30pm 124 3 G 4 54° 66% - - 43° 64.6° 51.6° - - -
4/25 9:20pm 117 0 G 4 55° 65% - - 43° 64.6° 51.6° - - -
4/25 9:10pm 70 0 G 1 55° 65% - - 43° 64.6° 51.6° - - -
4/25 9:00pm 136 1 G 2 54° 65% - - 43° 64.6° 51.6° - - -
4/25 8:50pm 136 2 G 2 55° 65% - - 43° 64.6° 51.6° - - -
4/25 8:40pm 297 1 G 2 55° 64% - - 43° 64.6° 51.6° - - -
4/25 8:30pm 352 1 G 2 55° 63% - - 43° 64.6° 51.6° - - -
4/25 8:20pm 295 1 G 2 55° 63% - - 43° 64.6° 51.6° - - -
4/25 8:10pm 241 1 G 4 55° 63% - - 43° 64.6° 51.6° - - -
4/25 8:00pm 182 1 G 3 56° 62% - - 43° 64.6° 51.6° - - -
4/25 7:50pm 195 1 G 3 56° 61% - - 43° 64.6° 51.6° - - -
4/25 7:40pm 262 1 G 4 57° 60% - - 43° 64.6° 51.6° - - -
4/25 7:30pm 275 4 G 8 57° 59% - - 43° 64.6° 51.6° - - -
4/25 7:20pm 277 4 G 7 58° 59% - - 44° 64.6° 51.6° - - -
4/25 7:10pm 269 5 G 9 58° 58% - - 43° 64.6° 51.6° - - -
4/25 7:00pm 263 7 G 11 58° 58% - - 44° 64.6° 51.6° - - -
4/25 6:50pm 260 8 G 14 59° 58% - - 44° 64.6° 51.6° - - -
4/25 6:40pm 266 7 G 14 59° 58% - - 44° 64.6° 51.6° - - -
4/25 6:30pm 264 8 G 12 59° 61% - - 45° 64.6° 51.6° - - -
4/25 6:20pm 263 7 G 12 59° 63% - - 46° 64.6° 51.6° - - -
4/25 6:10pm 261 7 G 13 59° 63% - - 47° 64.6° 51.6° - - -
4/25 6:00pm 270 8 G 13 60° 63% - - 47° 64.6° 51.6° - - -
4/25 5:50pm 266 10 G 16 60° 62% - - 47° 64.6° 51.6° - - -
4/25 5:40pm 265 9 G 17 61° 62% - - 48° 64.6° 51.6° - - -
4/25 5:30pm 275 9 G 16 61° 62% - - 48° 64.6° 51.6° - - -
4/25 5:20pm 269 9 G 14 61° 62% - - 48° 64.6° 51.6° - - -
4/25 5:10pm 266 9 G 14 61° 61% - - 47° 64.6° 51.6° - - -
4/25 5:00pm 271 8 G 14 62° 59% - - 47° 64.6° 51.6° - - -
4/25 4:50pm 262 7 G 12 62° 58% - - 47° 64.6° 51.6° - - -
4/25 4:40pm 272 8 G 16 61° 59% - - 47° 64.6° 51.6° - - -
4/25 4:30pm 261 9 G 17 61° 59% - - 47° 64.6° 51.6° - - -
4/25 4:20pm 271 9 G 13 62° 58% - - 47° 64.6° 51.6° - - -
4/25 4:10pm 276 8 G 15 62° 58% - - 47° 64.6° 51.6° - - -
4/25 4:00pm 271 8 G 16 62° 58% - - 47° 64.6° 51.6° - - -
4/25 3:50pm 270 9 G 14 62° 58% - - 47° 64.6° 51.6° - - -
4/25 3:40pm 284 9 G 16 63° 57% - - 47° 64.6° 51.6° - - -
4/25 3:30pm 279 9 G 15 62° 58% - - 47° 64.6° 51.6° - - -
4/25 3:20pm 285 7 G 12 62° 58% - - 47° 64.6° 51.6° - - -
4/25 3:10pm 275 8 G 14 62° 58% - - 47° 64.6° 51.6° - - -
4/25 3:00pm 265 8 G 15 62° 58% - - 47° 64.6° 51.6° - - -
4/25 2:50pm 274 8 G 13 63° 57% - - 47° 64.6° 51.6° - - -
4/25 2:40pm 267 8 G 14 62° 58% - - 47° 64.6° 51.6° - - -
4/25 2:30pm 247 8 G 12 62° 57% - - 47° 64.6° 51.6° - - -
4/25 2:20pm 264 9 G 17 62° 57% - - 47° 64.6° 51.6° - - -
4/25 2:10pm 269 9 G 15 63° 56% - - 47° 64.6° 51.6° - - -
4/25 2:00pm 258 10 G 16 62° 56% - - 47° 64.6° 51.6° - - -
4/25 1:50pm 260 8 G 14 63° 56% - - 47° 64.6° 51.6° - - -
4/25 1:40pm 271 8 G 15 64° 54% - - 47° 64.6° 51.6° - - -
4/25 1:30pm 268 8 G 17 64° 54% - - 47° 64.6° 51.6° - - -
4/25 1:20pm 263 9 G 17 63° 55% - - 47° 64.5° 51.6° - - -
4/25 1:10pm 266 8 G 12 63° 53% - - 46° 64.5° 51.6° - - -
4/25 1:00pm 281 7 G 13 64° 52% - - 46° 64.5° 51.6° - - -
4/25 12:50pm 263 10 G 17 63° 52% - - 45° 64.1° 51.6° - - -
4/25 12:40pm 277 7 G 18 63° 51% - - 45° 64.1° 51.6° - - -
4/25 12:30pm 278 8 G 14 63° 52% - - 45° 64.1° 51.6° - - -
4/25 12:20pm 259 10 G 17 63° 52% - - 45° 64.1° 51.6° - - -
4/25 12:10pm 279 7 G 13 63° 52% - - 45° 64.1° 51.6° - - -
4/25 12:00pm 288 6 G 11 63° 52% - - 45° 63.4° 51.6° - - -
4/25 11:50am 295 6 G 13 62° 50% - - 44° 62.9° 51.6° - - -
4/25 11:40am 259 8 G 18 62° 51% - - 44° 62.9° 51.6° - - -
4/25 11:30am 272 7 G 14 62° 53% - - 44° 62.5° 51.6° - - -
4/25 11:20am 262 7 G 13 62° 53% - - 44° 62.5° 51.6° - - -
4/25 11:10am 269 7 G 12 61° 54% - - 45° 62.5° 51.6° - - -
4/25 11:00am 279 7 G 14 62° 54% - - 45° 62.2° 51.6° - - -
4/25 10:50am 257 6 G 13 61° 55% - - 45° 62° 51.6° - - -
4/25 10:40am 286 7 G 14 61° 57% - - 45° 62° 51.6° - - -
4/25 10:30am 291 5 G 11 61° 56% - - 45° 62° 51.6° - - -
4/25 10:20am 295 5 G 12 60° 57% - - 45° 60.9° 51.6° - - -
4/25 10:10am 297 5 G 9 59° 62% - - 46° 60.5° 51.6° - - -
4/25 10:00am 282 6 G 11 58° 66% - - 47° 60.1° 51.6° - - -
4/25 9:50am 293 7 G 13 59° 62% - - 47° 60.1° 51.6° - - -
4/25 9:40am 287 4 G 8 59° 64% - - 46° 59.3° 51.6° - - -
4/25 9:30am 284 5 G 10 58° 65% - - 47° 58.9° 51.6° - - -
4/25 9:20am 284 4 G 7 58° 68% - - 47° 58.9° 51.6° - - -
4/25 9:10am 298 4 G 7 57° 69% - - 47° 58.9° 51.6° - - -
4/25 9:00am 316 5 G 9 58° 68% - - 48° 58.9° 51.6° - - -
4/25 8:50am 326 3 G 5 57° 71% - - 48° 57.9° 51.6° - - -
4/25 8:40am 319 2 G 4 57° 71% - - 48° 57.3° 51.6° - - -
4/25 8:30am 265 2 G 4 57° 72% - - 48° 57.3° 51.6° - - -
4/25 8:20am 228 2 G 3 56° 73% - - 48° 56.7° 51.6° - - -
4/25 8:10am 323 2 G 3 56° 76% - - 48° 56.2° 51.6° - - -
4/25 8:00am 70 2 G 4 55° 79% - - 48° 55.4° 51.6° - - -
4/25 7:50am 106 0 G 2 54° 82% - - 49° 54.9° 51.6° - - -
4/25 7:40am 262 1 G 3 54° 83% - - 48° 54.9° 51.6° - - -
4/25 7:30am 243 2 G 4 54° 82% - - 48° 54.9° 51.6° - - -
4/25 7:20am 221 2 G 3 53° 82% - - 48° 54.9° 51.6° - - -
4/25 7:10am 208 1 G 2 53° 82% - - 48° 54.9° 51.6° - - -
4/25 7:00am 307 0 G 3 53° 82% - - 48° 54.9° 51.6° - - -
4/25 6:50am 255 1 G 2 53° 81% - - 47° 54.9° 51.6° - - -
4/25 6:40am 160 1 G 2 53° 81% - - 47° 54.9° 51.6° - - -
4/25 6:30am 227 1 G 2 53° 81% - - 47° 54.9° 51.6° - - -
4/25 6:20am 230 1 G 2 53° 81% - - 47° 54.9° 51.6° - - -
4/25 6:10am 196 1 G 2 53° 80% - - 47° 54.9° 51.6° - - -
4/25 6:00am 104 1 G 4 53° 80% - - 47° 54.9° 51.6° - - -
4/25 5:50am 113 1 G 2 53° 79% - - 47° 54.9° 51.6° - - -
4/25 5:40am 101 3 G 6 53° 80% - - 47° 54.9° 51.6° - - -
4/25 5:30am 127 3 G 6 53° 79% - - 47° 54.9° 51.6° - - -
4/25 5:20am 112 1 G 4 52° 79% - - 46° 54.9° 51.6° - - -
4/25 5:10am 61 1 G 3 52° 80% - - 46° 54.9° 51.6° - - -
4/25 5:00am 111 3 G 5 52° 81% - - 46° 54.9° 51.6° - - -
4/25 4:50am 135 3 G 6 52° 79% - - 46° 54.9° 51.7° - - -
4/25 4:40am 139 3 G 5 53° 78% - - 46° 54.9° 52.3° - - -
4/25 4:30am 156 2 G 4 54° 76% - - 46° 54.9° 53° - - -
4/25 4:20am 163 3 G 5 54° 77% - - 47° 54.9° 53° - - -
4/25 4:10am 165 4 G 7 54° 79% - - 47° 54.9° 53° - - -
4/25 4:00am 183 3 G 6 53° 82% - - 48° 54.9° 53° - - -
4/25 3:50am 233 3 G 7 53° 84% - - 49° 54.9° 53° - - -
4/25 3:40am 235 5 G 7 53° 85% - - 49° 54.9° 53° - - -
4/25 3:30am 229 5 G 9 53° 84% - - 49° 54.9° 53.2° - - -
4/25 3:20am 222 4 G 8 53° 82% - - 48° 54.9° 53.3° - - -
4/25 3:10am 211 6 G 10 54° 80% - - 48° 54.9° 53.4° - - -
4/25 3:00am 221 5 G 8 54° 79% - - 48° 54.9° 53.4° - - -
4/25 2:50am 234 4 G 7 54° 79% - - 47° 54.9° 53.4° - - -
4/25 2:40am 261 3 G 6 54° 78% - - 47° 54.9° 53.4° - - -
4/25 2:30am 277 3 G 6 55° 74% - - 47° 54.9° 53.4° - - -
4/25 2:20am 217 3 G 6 55° 74% - - 47° 54.9° 53.4° - - -
4/25 2:10am 206 3 G 6 55° 74% - - 47° 54.8° 53.4° - - -
4/25 2:00am 177 2 G 6 55° 75% - - 47° 54.8° 53.4° - - -
4/25 1:50am 145 2 G 5 54° 76% - - 47° 54.5° 53.4° - - -
4/25 1:40am 158 3 G 5 54° 76% - - 47° 54.3° 53.4° - - -
4/25 1:30am 232 2 G 3 54° 76% - - 47° 54.2° 53.4° - - -
4/25 1:20am 236 2 G 4 54° 77% - - 47° 54.1° 53.4° - - -
4/25 1:10am 232 4 G 7 54° 76% - - 47° 54° 53.4° - - -
4/25 1:00am 216 4 G 6 54° 76% - - 46° 54° 53.4° - - -
4/25 12:50am 231 4 G 7 54° 77% - - 47° 54° 53.4° - - -
4/25 12:40am 262 3 G 7 54° 79% - - 47° 54° 53.4° - - -
4/25 12:30am 254 4 G 11 54° 80% - - 47° 54° 53.4° - - -
4/25 12:20am 196 6 G 10 54° 79% - - 47° 54° 53.5° - - -
4/25 12:10am 179 2 G 5 54° 78% - - 47° 54° 53.6° - - -
4/25 12:00am 218 3 G 6 54° 78% - - 47° 67.7° 46.8° - - -
4/24 11:50pm 252 3 G 7 54° 79% - - 47° 67.7° 46.8° - - -
4/24 11:40pm 271 4 G 8 54° 80% - - 48° 67.7° 46.8° - - -
4/24 11:30pm 271 4 G 8 54° 81% - - 48° 67.7° 46.8° - - -
4/24 11:20pm 273 4 G 7 54° 81% - - 48° 67.7° 46.8° - - -
4/24 11:10pm 267 4 G 8 54° 80% - - 48° 67.7° 46.8° - - -
4/24 11:00pm 244 4 G 6 54° 79% - - 47° 67.7° 46.8° - - -
4/24 10:50pm 220 3 G 6 53° 80% - - 47° 67.7° 46.8° - - -
4/24 10:40pm 217 4 G 6 53° 80% - - 48° 67.7° 46.8° - - -
4/24 10:30pm 195 4 G 7 53° 81% - - 48° 67.7° 46.8° - - -
4/24 10:20pm 233 3 G 5 53° 85% - - 49° 67.7° 46.8° - - -
4/24 10:10pm 255 1 G 2 54° 86% - - 49° 67.7° 46.8° - - -
4/24 10:00pm 164 0 G 2 54° 85% - - 50° 67.7° 46.8° - - -
4/24 9:50pm 258 2 G 4 54° 85% - - 50° 67.7° 46.8° - - -
4/24 9:40pm 235 2 G 3 54° 84% - - 49° 67.7° 46.8° - - -
4/24 9:30pm 281 1 G 3 55° 83% - - 50° 67.7° 46.8° - - -
4/24 9:20pm 303 1 G 2 55° 83% - - 50° 67.7° 46.8° - - -
4/24 9:10pm 293 2 G 4 55° 83% - - 50° 67.7° 46.8° - - -
4/24 9:00pm 305 3 G 6 55° 83% - - 50° 67.7° 46.8° - - -
4/24 8:50pm 313 3 G 6 55° 83% - - 50° 67.7° 46.8° - - -
4/24 8:40pm 311 3 G 6 55° 82% - - 50° 67.7° 46.8° - - -
4/24 8:30pm 286 3 G 5 55° 82% - - 50° 67.7° 46.8° - - -
4/24 8:20pm 267 3 G 5 55° 82% - - 50° 67.7° 46.8° - - -
4/24 8:10pm 265 2 G 4 55° 82% - - 50° 67.7° 46.8° - - -
4/24 8:00pm 290 3 G 6 55° 81% - - 50° 67.7° 46.8° - - -
4/24 7:50pm 295 3 G 6 56° 81% - - 50° 67.7° 46.8° - - -
4/24 7:40pm 292 4 G 6 56° 80% - - 50° 67.7° 46.8° - - -
4/24 7:30pm 302 4 G 8 56° 78% - - 50° 67.7° 46.8° - - -
4/24 7:20pm 301 4 G 9 57° 78% - - 50° 67.7° 46.8° - - -
4/24 7:10pm 308 5 G 9 57° 76% - - 50° 67.7° 46.8° - - -
4/24 7:00pm 301 5 G 9 58° 75% - - 50° 67.7° 46.8° - - -
4/24 6:50pm 308 6 G 11 58° 73% - - 50° 67.7° 46.8° - - -
4/24 6:40pm 306 6 G 10 59° 72% - - 50° 67.7° 46.8° - - -
4/24 6:30pm 299 6 G 11 60° 71% - - 50° 67.7° 46.8° - - -
4/24 6:20pm 296 6 G 10 60° 70% - - 50° 67.7° 46.8° - - -
4/24 6:10pm 291 7 G 12 60° 69% - - 50° 67.7° 46.8° - - -
4/24 6:00pm 291 7 G 12 61° 67% - - 50° 67.7° 46.8° - - -